sensor_id;sensor_type;location;lat;lon;timestamp;P1;durP1;ratioP1;P2;durP2;ratioP2
23543;SDS011;11950;51.230;4.012;2023-05-09T00:00:21;15.70;;;10.95;;
23543;SDS011;11950;51.230;4.012;2023-05-09T00:02:48;16.85;;;10.23;;
23543;SDS011;11950;51.230;4.012;2023-05-09T00:05:14;16.35;;;10.07;;
23543;SDS011;11950;51.230;4.012;2023-05-09T00:07:40;13.70;;;10.18;;
23543;SDS011;11950;51.230;4.012;2023-05-09T00:10:07;16.65;;;10.85;;
23543;SDS011;11950;51.230;4.012;2023-05-09T00:12:33;17.42;;;10.35;;
23543;SDS011;11950;51.230;4.012;2023-05-09T00:15:00;14.40;;;9.85;;
23543;SDS011;11950;51.230;4.012;2023-05-09T00:17:26;15.57;;;10.50;;
23543;SDS011;11950;51.230;4.012;2023-05-09T00:19:53;15.98;;;10.60;;
23543;SDS011;11950;51.230;4.012;2023-05-09T00:22:20;16.08;;;9.77;;
23543;SDS011;11950;51.230;4.012;2023-05-09T00:24:47;14.05;;;10.45;;
23543;SDS011;11950;51.230;4.012;2023-05-09T00:27:14;13.98;;;10.20;;
23543;SDS011;11950;51.230;4.012;2023-05-09T00:29:41;18.05;;;10.43;;
23543;SDS011;11950;51.230;4.012;2023-05-09T00:32:08;12.57;;;10.00;;
23543;SDS011;11950;51.230;4.012;2023-05-09T00:34:35;13.90;;;10.00;;
23543;SDS011;11950;51.230;4.012;2023-05-09T00:37:02;13.27;;;9.95;;
23543;SDS011;11950;51.230;4.012;2023-05-09T00:39:28;13.98;;;9.65;;
23543;SDS011;11950;51.230;4.012;2023-05-09T00:41:55;15.60;;;9.80;;
23543;SDS011;11950;51.230;4.012;2023-05-09T00:44:22;14.93;;;10.30;;
23543;SDS011;11950;51.230;4.012;2023-05-09T00:46:48;13.70;;;9.57;;
23543;SDS011;11950;51.230;4.012;2023-05-09T00:49:15;16.45;;;9.38;;
23543;SDS011;11950;51.230;4.012;2023-05-09T00:51:41;17.88;;;9.73;;
23543;SDS011;11950;51.230;4.012;2023-05-09T00:54:08;15.48;;;9.57;;
23543;SDS011;11950;51.230;4.012;2023-05-09T00:56:36;15.00;;;10.02;;
23543;SDS011;11950;51.230;4.012;2023-05-09T00:59:03;17.88;;;10.27;;
23543;SDS011;11950;51.230;4.012;2023-05-09T01:01:31;15.27;;;9.88;;
23543;SDS011;11950;51.230;4.012;2023-05-09T01:03:57;11.98;;;9.65;;
23543;SDS011;11950;51.230;4.012;2023-05-09T01:11:57;15.32;;;10.40;;
23543;SDS011;11950;51.230;4.012;2023-05-09T01:14:38;14.98;;;9.70;;
23543;SDS011;11950;51.230;4.012;2023-05-09T01:17:18;12.63;;;9.48;;
23543;SDS011;11950;51.230;4.012;2023-05-09T01:20:01;16.60;;;9.93;;
23543;SDS011;11950;51.230;4.012;2023-05-09T01:22:54;16.25;;;10.15;;
23543;SDS011;11950;51.230;4.012;2023-05-09T01:25:53;16.48;;;10.18;;
23543;SDS011;11950;51.230;4.012;2023-05-09T01:31:21;15.63;;;10.77;;
23543;SDS011;11950;51.230;4.012;2023-05-09T01:33:51;18.45;;;11.30;;
23543;SDS011;11950;51.230;4.012;2023-05-09T01:36:22;16.30;;;11.25;;
23543;SDS011;11950;51.230;4.012;2023-05-09T01:38:54;15.32;;;10.88;;
23543;SDS011;11950;51.230;4.012;2023-05-09T01:41:22;15.65;;;11.50;;
23543;SDS011;11950;51.230;4.012;2023-05-09T01:43:51;19.52;;;11.32;;
23543;SDS011;11950;51.230;4.012;2023-05-09T01:46:20;16.55;;;11.43;;
23543;SDS011;11950;51.230;4.012;2023-05-09T01:48:48;16.38;;;10.27;;
23543;SDS011;11950;51.230;4.012;2023-05-09T01:51:15;14.88;;;11.23;;
23543;SDS011;11950;51.230;4.012;2023-05-09T01:53:44;17.20;;;10.88;;
23543;SDS011;11950;51.230;4.012;2023-05-09T01:56:14;18.73;;;10.40;;
23543;SDS011;11950;51.230;4.012;2023-05-09T01:58:42;16.10;;;10.52;;
23543;SDS011;11950;51.230;4.012;2023-05-09T02:01:10;16.40;;;10.60;;
23543;SDS011;11950;51.230;4.012;2023-05-09T02:03:38;14.40;;;10.80;;
23543;SDS011;11950;51.230;4.012;2023-05-09T02:06:05;15.45;;;10.82;;
23543;SDS011;11950;51.230;4.012;2023-05-09T02:08:32;15.10;;;11.00;;
23543;SDS011;11950;51.230;4.012;2023-05-09T02:10:59;14.90;;;10.57;;
23543;SDS011;11950;51.230;4.012;2023-05-09T02:13:26;15.10;;;10.52;;
23543;SDS011;11950;51.230;4.012;2023-05-09T02:15:52;17.17;;;10.75;;
23543;SDS011;11950;51.230;4.012;2023-05-09T02:18:19;17.58;;;11.05;;
23543;SDS011;11950;51.230;4.012;2023-05-09T02:20:46;14.98;;;10.85;;
23543;SDS011;11950;51.230;4.012;2023-05-09T02:23:12;18.13;;;10.77;;
23543;SDS011;11950;51.230;4.012;2023-05-09T02:25:39;13.25;;;9.82;;
23543;SDS011;11950;51.230;4.012;2023-05-09T02:28:06;17.00;;;10.05;;
23543;SDS011;11950;51.230;4.012;2023-05-09T02:30:36;15.57;;;10.18;;
23543;SDS011;11950;51.230;4.012;2023-05-09T02:33:06;14.33;;;10.43;;
23543;SDS011;11950;51.230;4.012;2023-05-09T02:35:35;17.85;;;10.80;;
23543;SDS011;11950;51.230;4.012;2023-05-09T02:38:03;14.52;;;10.40;;
23543;SDS011;11950;51.230;4.012;2023-05-09T02:40:31;14.68;;;10.90;;
23543;SDS011;11950;51.230;4.012;2023-05-09T02:42:58;17.10;;;10.80;;
23543;SDS011;11950;51.230;4.012;2023-05-09T02:45:25;16.80;;;11.50;;
23543;SDS011;11950;51.230;4.012;2023-05-09T02:47:51;15.20;;;10.20;;
23543;SDS011;11950;51.230;4.012;2023-05-09T02:50:17;14.63;;;10.48;;
23543;SDS011;11950;51.230;4.012;2023-05-09T02:52:44;14.07;;;10.68;;
23543;SDS011;11950;51.230;4.012;2023-05-09T02:55:10;15.13;;;10.85;;
23543;SDS011;11950;51.230;4.012;2023-05-09T02:57:39;15.95;;;10.32;;
23543;SDS011;11950;51.230;4.012;2023-05-09T03:00:05;13.85;;;10.60;;
23543;SDS011;11950;51.230;4.012;2023-05-09T03:02:36;14.00;;;10.70;;
23543;SDS011;11950;51.230;4.012;2023-05-09T03:05:05;18.50;;;10.57;;
23543;SDS011;11950;51.230;4.012;2023-05-09T03:07:34;16.52;;;10.65;;
23543;SDS011;11950;51.230;4.012;2023-05-09T03:10:02;15.85;;;10.80;;
23543;SDS011;11950;51.230;4.012;2023-05-09T03:12:30;15.43;;;10.35;;
23543;SDS011;11950;51.230;4.012;2023-05-09T03:14:56;15.15;;;10.50;;
23543;SDS011;11950;51.230;4.012;2023-05-09T03:17:22;15.50;;;10.52;;
23543;SDS011;11950;51.230;4.012;2023-05-09T03:19:48;12.80;;;9.68;;
23543;SDS011;11950;51.230;4.012;2023-05-09T03:22:15;18.70;;;10.70;;
23543;SDS011;11950;51.230;4.012;2023-05-09T03:24:52;13.27;;;10.10;;
23543;SDS011;11950;51.230;4.012;2023-05-09T03:27:18;13.57;;;10.13;;
23543;SDS011;11950;51.230;4.012;2023-05-09T03:29:45;15.95;;;10.32;;
23543;SDS011;11950;51.230;4.012;2023-05-09T03:32:14;13.15;;;9.10;;
23543;SDS011;11950;51.230;4.012;2023-05-09T03:34:40;13.77;;;10.10;;
23543;SDS011;11950;51.230;4.012;2023-05-09T03:37:07;14.50;;;9.82;;
23543;SDS011;11950;51.230;4.012;2023-05-09T03:39:37;12.68;;;8.98;;
23543;SDS011;11950;51.230;4.012;2023-05-09T03:42:03;14.45;;;9.48;;
23543;SDS011;11950;51.230;4.012;2023-05-09T03:44:30;12.85;;;9.98;;
23543;SDS011;11950;51.230;4.012;2023-05-09T03:46:58;14.35;;;9.77;;
23543;SDS011;11950;51.230;4.012;2023-05-09T03:49:25;16.10;;;9.40;;
23543;SDS011;11950;51.230;4.012;2023-05-09T03:51:53;12.70;;;9.40;;
23543;SDS011;11950;51.230;4.012;2023-05-09T03:54:19;13.85;;;9.38;;
23543;SDS011;11950;51.230;4.012;2023-05-09T03:56:46;13.68;;;9.05;;
23543;SDS011;11950;51.230;4.012;2023-05-09T03:59:13;12.18;;;8.77;;
23543;SDS011;11950;51.230;4.012;2023-05-09T04:01:39;14.57;;;8.95;;
23543;SDS011;11950;51.230;4.012;2023-05-09T04:04:07;14.15;;;9.55;;
23543;SDS011;11950;51.230;4.012;2023-05-09T04:06:35;12.35;;;9.30;;
23543;SDS011;11950;51.230;4.012;2023-05-09T04:09:04;13.68;;;9.85;;
23543;SDS011;11950;51.230;4.012;2023-05-09T04:11:30;13.43;;;9.20;;
23543;SDS011;11950;51.230;4.012;2023-05-09T04:13:58;13.50;;;10.02;;
23543;SDS011;11950;51.230;4.012;2023-05-09T04:16:29;14.57;;;9.98;;
23543;SDS011;11950;51.230;4.012;2023-05-09T04:18:55;13.98;;;9.63;;
23543;SDS011;11950;51.230;4.012;2023-05-09T04:21:21;12.23;;;9.23;;
23543;SDS011;11950;51.230;4.012;2023-05-09T04:23:52;13.50;;;9.60;;
23543;SDS011;11950;51.230;4.012;2023-05-09T04:26:24;15.45;;;10.00;;
23543;SDS011;11950;51.230;4.012;2023-05-09T04:28:54;14.38;;;9.65;;
23543;SDS011;11950;51.230;4.012;2023-05-09T04:31:22;15.50;;;9.70;;
23543;SDS011;11950;51.230;4.012;2023-05-09T04:33:50;12.55;;;9.82;;
23543;SDS011;11950;51.230;4.012;2023-05-09T04:36:16;15.52;;;10.68;;
23543;SDS011;11950;51.230;4.012;2023-05-09T04:38:43;14.88;;;10.35;;
23543;SDS011;11950;51.230;4.012;2023-05-09T04:41:13;16.80;;;10.27;;
23543;SDS011;11950;51.230;4.012;2023-05-09T04:43:41;15.75;;;9.93;;
23543;SDS011;11950;51.230;4.012;2023-05-09T04:46:08;13.23;;;10.10;;
23543;SDS011;11950;51.230;4.012;2023-05-09T04:48:35;13.27;;;10.18;;
23543;SDS011;11950;51.230;4.012;2023-05-09T04:51:02;14.43;;;10.30;;
23543;SDS011;11950;51.230;4.012;2023-05-09T04:53:28;13.73;;;10.15;;
23543;SDS011;11950;51.230;4.012;2023-05-09T04:55:55;15.05;;;9.98;;
23543;SDS011;11950;51.230;4.012;2023-05-09T04:58:22;12.00;;;9.43;;
23543;SDS011;11950;51.230;4.012;2023-05-09T05:00:50;16.65;;;10.10;;
23543;SDS011;11950;51.230;4.012;2023-05-09T05:03:17;13.73;;;9.85;;
23543;SDS011;11950;51.230;4.012;2023-05-09T05:05:44;15.55;;;10.65;;
23543;SDS011;11950;51.230;4.012;2023-05-09T05:08:10;15.93;;;10.57;;
23543;SDS011;11950;51.230;4.012;2023-05-09T05:10:39;13.98;;;10.25;;
23543;SDS011;11950;51.230;4.012;2023-05-09T05:13:09;16.45;;;10.60;;
23543;SDS011;11950;51.230;4.012;2023-05-09T05:15:40;13.38;;;9.90;;
23543;SDS011;11950;51.230;4.012;2023-05-09T05:18:07;14.23;;;10.30;;
23543;SDS011;11950;51.230;4.012;2023-05-09T05:20:34;16.25;;;10.63;;
23543;SDS011;11950;51.230;4.012;2023-05-09T05:23:00;15.00;;;9.95;;
23543;SDS011;11950;51.230;4.012;2023-05-09T05:25:27;15.52;;;9.90;;
23543;SDS011;11950;51.230;4.012;2023-05-09T05:27:54;14.25;;;10.05;;
23543;SDS011;11950;51.230;4.012;2023-05-09T05:30:20;14.48;;;10.20;;
23543;SDS011;11950;51.230;4.012;2023-05-09T05:32:47;15.65;;;10.35;;
23543;SDS011;11950;51.230;4.012;2023-05-09T05:35:17;19.83;;;11.38;;
23543;SDS011;11950;51.230;4.012;2023-05-09T05:37:44;13.48;;;10.23;;
23543;SDS011;11950;51.230;4.012;2023-05-09T05:40:11;16.17;;;11.35;;
23543;SDS011;11950;51.230;4.012;2023-05-09T05:42:40;17.15;;;10.75;;
23543;SDS011;11950;51.230;4.012;2023-05-09T05:45:09;14.38;;;10.80;;
23543;SDS011;11950;51.230;4.012;2023-05-09T05:47:39;16.52;;;10.40;;
23543;SDS011;11950;51.230;4.012;2023-05-09T05:50:05;16.15;;;11.52;;
23543;SDS011;11950;51.230;4.012;2023-05-09T05:52:39;15.00;;;10.55;;
23543;SDS011;11950;51.230;4.012;2023-05-09T05:55:08;15.15;;;10.25;;
23543;SDS011;11950;51.230;4.012;2023-05-09T05:57:36;16.13;;;10.73;;
23543;SDS011;11950;51.230;4.012;2023-05-09T06:00:05;13.48;;;10.05;;
23543;SDS011;11950;51.230;4.012;2023-05-09T06:02:42;15.73;;;11.35;;
23543;SDS011;11950;51.230;4.012;2023-05-09T06:05:11;12.48;;;10.23;;
23543;SDS011;11950;51.230;4.012;2023-05-09T06:07:38;16.92;;;10.43;;
23543;SDS011;11950;51.230;4.012;2023-05-09T06:10:06;16.38;;;11.82;;
23543;SDS011;11950;51.230;4.012;2023-05-09T06:12:33;16.10;;;11.32;;
23543;SDS011;11950;51.230;4.012;2023-05-09T06:15:00;15.25;;;11.10;;
23543;SDS011;11950;51.230;4.012;2023-05-09T06:17:27;17.45;;;12.00;;
23543;SDS011;11950;51.230;4.012;2023-05-09T06:19:54;15.95;;;10.65;;
23543;SDS011;11950;51.230;4.012;2023-05-09T06:22:21;14.75;;;10.93;;
23543;SDS011;11950;51.230;4.012;2023-05-09T06:24:47;18.27;;;11.85;;
23543;SDS011;11950;51.230;4.012;2023-05-09T06:27:13;16.23;;;11.20;;
23543;SDS011;11950;51.230;4.012;2023-05-09T06:29:40;14.75;;;10.68;;
23543;SDS011;11950;51.230;4.012;2023-05-09T06:32:06;18.10;;;11.35;;
23543;SDS011;11950;51.230;4.012;2023-05-09T06:34:32;15.85;;;10.55;;
23543;SDS011;11950;51.230;4.012;2023-05-09T06:36:58;13.27;;;10.68;;
23543;SDS011;11950;51.230;4.012;2023-05-09T06:39:25;14.07;;;10.85;;
23543;SDS011;11950;51.230;4.012;2023-05-09T06:41:51;15.80;;;10.93;;
23543;SDS011;11950;51.230;4.012;2023-05-09T06:44:23;13.90;;;10.13;;
23543;SDS011;11950;51.230;4.012;2023-05-09T06:46:50;13.68;;;10.98;;
23543;SDS011;11950;51.230;4.012;2023-05-09T06:49:16;13.95;;;10.48;;
23543;SDS011;11950;51.230;4.012;2023-05-09T06:51:43;15.57;;;10.52;;
23543;SDS011;11950;51.230;4.012;2023-05-09T06:54:09;16.42;;;10.73;;
23543;SDS011;11950;51.230;4.012;2023-05-09T06:56:35;17.13;;;10.85;;
23543;SDS011;11950;51.230;4.012;2023-05-09T06:59:01;15.90;;;10.38;;
23543;SDS011;11950;51.230;4.012;2023-05-09T07:01:28;15.65;;;10.43;;
23543;SDS011;11950;51.230;4.012;2023-05-09T07:03:54;15.00;;;9.93;;
23543;SDS011;11950;51.230;4.012;2023-05-09T07:06:20;14.77;;;9.68;;
23543;SDS011;11950;51.230;4.012;2023-05-09T07:08:50;13.55;;;9.65;;
23543;SDS011;11950;51.230;4.012;2023-05-09T07:11:16;14.93;;;10.18;;
23543;SDS011;11950;51.230;4.012;2023-05-09T07:13:42;12.80;;;10.18;;
23543;SDS011;11950;51.230;4.012;2023-05-09T07:16:08;14.05;;;10.05;;
23543;SDS011;11950;51.230;4.012;2023-05-09T07:18:35;12.38;;;10.05;;
23543;SDS011;11950;51.230;4.012;2023-05-09T07:21:01;13.10;;;9.70;;
23543;SDS011;11950;51.230;4.012;2023-05-09T07:23:28;15.10;;;9.88;;
23543;SDS011;11950;51.230;4.012;2023-05-09T07:25:55;14.63;;;9.68;;
23543;SDS011;11950;51.230;4.012;2023-05-09T07:28:23;15.98;;;9.60;;
23543;SDS011;11950;51.230;4.012;2023-05-09T07:30:53;14.65;;;9.77;;
23543;SDS011;11950;51.230;4.012;2023-05-09T07:33:23;13.70;;;9.57;;
23543;SDS011;11950;51.230;4.012;2023-05-09T07:43:25;14.45;;;9.40;;
23543;SDS011;11950;51.230;4.012;2023-05-09T07:45:51;11.30;;;9.43;;
23543;SDS011;11950;51.230;4.012;2023-05-09T07:48:18;10.45;;;9.10;;
23543;SDS011;11950;51.230;4.012;2023-05-09T07:50:44;10.60;;;8.55;;
23543;SDS011;11950;51.230;4.012;2023-05-09T07:53:11;11.30;;;8.82;;
23543;SDS011;11950;51.230;4.012;2023-05-09T07:55:37;12.15;;;9.23;;
23543;SDS011;11950;51.230;4.012;2023-05-09T07:58:03;10.52;;;8.85;;
23543;SDS011;11950;51.230;4.012;2023-05-09T08:00:30;12.30;;;8.98;;
23543;SDS011;11950;51.230;4.012;2023-05-09T08:02:56;13.18;;;8.90;;
23543;SDS011;11950;51.230;4.012;2023-05-09T08:05:22;12.70;;;8.98;;
23543;SDS011;11950;51.230;4.012;2023-05-09T08:07:49;9.27;;;8.30;;
23543;SDS011;11950;51.230;4.012;2023-05-09T08:10:15;9.35;;;8.30;;
23543;SDS011;11950;51.230;4.012;2023-05-09T08:12:41;12.50;;;8.32;;
23543;SDS011;11950;51.230;4.012;2023-05-09T08:15:12;11.50;;;9.25;;
23543;SDS011;11950;51.230;4.012;2023-05-09T08:17:38;13.43;;;8.88;;
23543;SDS011;11950;51.230;4.012;2023-05-09T08:20:05;10.25;;;8.45;;
23543;SDS011;11950;51.230;4.012;2023-05-09T08:22:32;9.65;;;7.75;;
23543;SDS011;11950;51.230;4.012;2023-05-09T08:24:58;12.32;;;8.32;;
23543;SDS011;11950;51.230;4.012;2023-05-09T08:27:25;12.98;;;7.78;;
23543;SDS011;11950;51.230;4.012;2023-05-09T08:29:51;9.73;;;8.13;;
23543;SDS011;11950;51.230;4.012;2023-05-09T08:32:17;13.13;;;8.95;;
23543;SDS011;11950;51.230;4.012;2023-05-09T08:34:44;9.93;;;7.65;;
23543;SDS011;11950;51.230;4.012;2023-05-09T08:37:11;12.93;;;7.55;;
23543;SDS011;11950;51.230;4.012;2023-05-09T08:39:37;9.25;;;7.03;;
23543;SDS011;11950;51.230;4.012;2023-05-09T08:42:03;9.02;;;6.72;;
23543;SDS011;11950;51.230;4.012;2023-05-09T08:44:30;9.90;;;6.57;;
23543;SDS011;11950;51.230;4.012;2023-05-09T08:47:00;9.38;;;6.65;;
23543;SDS011;11950;51.230;4.012;2023-05-09T08:49:28;10.30;;;6.80;;
23543;SDS011;11950;51.230;4.012;2023-05-09T08:51:55;8.57;;;6.55;;
23543;SDS011;11950;51.230;4.012;2023-05-09T08:54:22;10.95;;;6.65;;
23543;SDS011;11950;51.230;4.012;2023-05-09T08:56:52;8.75;;;6.47;;
23543;SDS011;11950;51.230;4.012;2023-05-09T08:59:18;7.60;;;5.90;;
23543;SDS011;11950;51.230;4.012;2023-05-09T09:01:45;10.88;;;6.72;;
23543;SDS011;11950;51.230;4.012;2023-05-09T09:04:12;8.50;;;6.03;;
23543;SDS011;11950;51.230;4.012;2023-05-09T09:06:38;10.90;;;5.88;;
23543;SDS011;11950;51.230;4.012;2023-05-09T09:09:06;9.02;;;5.95;;
23543;SDS011;11950;51.230;4.012;2023-05-09T09:11:34;6.57;;;5.55;;
23543;SDS011;11950;51.230;4.012;2023-05-09T09:14:04;9.43;;;6.03;;
23543;SDS011;11950;51.230;4.012;2023-05-09T09:16:36;8.52;;;5.70;;
23543;SDS011;11950;51.230;4.012;2023-05-09T09:19:03;6.97;;;5.80;;
23543;SDS011;11950;51.230;4.012;2023-05-09T09:21:34;7.97;;;5.32;;
23543;SDS011;11950;51.230;4.012;2023-05-09T09:24:02;9.02;;;5.80;;
23543;SDS011;11950;51.230;4.012;2023-05-09T09:26:31;6.65;;;5.35;;
23543;SDS011;11950;51.230;4.012;2023-05-09T09:28:57;7.28;;;5.00;;
23543;SDS011;11950;51.230;4.012;2023-05-09T09:31:30;7.97;;;5.13;;
23543;SDS011;11950;51.230;4.012;2023-05-09T09:33:58;7.28;;;4.57;;
23543;SDS011;11950;51.230;4.012;2023-05-09T09:36:28;5.85;;;4.22;;
23543;SDS011;11950;51.230;4.012;2023-05-09T09:39:00;5.25;;;3.70;;
23543;SDS011;11950;51.230;4.012;2023-05-09T09:41:37;5.25;;;3.80;;
23543;SDS011;11950;51.230;4.012;2023-05-09T09:44:08;5.47;;;3.25;;
23543;SDS011;11950;51.230;4.012;2023-05-09T09:46:40;5.38;;;3.50;;
23543;SDS011;11950;51.230;4.012;2023-05-09T09:49:20;5.75;;;3.10;;
23543;SDS011;11950;51.230;4.012;2023-05-09T09:54:18;9.85;;;3.40;;
23543;SDS011;11950;51.230;4.012;2023-05-09T09:56:45;21.67;;;3.92;;
23543;SDS011;11950;51.230;4.012;2023-05-09T09:59:17;3.70;;;3.20;;
23543;SDS011;11950;51.230;4.012;2023-05-09T10:01:58;7.93;;;3.95;;
23543;SDS011;11950;51.230;4.012;2023-05-09T10:04:27;7.25;;;4.28;;
23543;SDS011;11950;51.230;4.012;2023-05-09T10:06:59;7.63;;;4.45;;
23543;SDS011;11950;51.230;4.012;2023-05-09T10:09:31;6.15;;;4.10;;
23543;SDS011;11950;51.230;4.012;2023-05-09T10:12:11;5.47;;;3.95;;
23543;SDS011;11950;51.230;4.012;2023-05-09T10:14:40;8.43;;;4.38;;
23543;SDS011;11950;51.230;4.012;2023-05-09T10:17:08;4.90;;;4.13;;
23543;SDS011;11950;51.230;4.012;2023-05-09T10:19:38;10.13;;;4.50;;
23543;SDS011;11950;51.230;4.012;2023-05-09T10:22:11;8.52;;;5.38;;
23543;SDS011;11950;51.230;4.012;2023-05-09T10:25:02;6.53;;;4.47;;
23543;SDS011;11950;51.230;4.012;2023-05-09T10:27:26;5.43;;;3.75;;
23543;SDS011;11950;51.230;4.012;2023-05-09T10:30:05;8.02;;;4.15;;
23543;SDS011;11950;51.230;4.012;2023-05-09T10:32:43;7.25;;;4.47;;
23543;SDS011;11950;51.230;4.012;2023-05-09T10:35:27;4.97;;;3.72;;
23543;SDS011;11950;51.230;4.012;2023-05-09T10:37:57;7.15;;;4.00;;
23543;SDS011;11950;51.230;4.012;2023-05-09T10:40:29;6.13;;;3.35;;
23543;SDS011;11950;51.230;4.012;2023-05-09T10:42:57;7.03;;;3.30;;
23543;SDS011;11950;51.230;4.012;2023-05-09T10:45:23;3.78;;;3.42;;
23543;SDS011;11950;51.230;4.012;2023-05-09T10:47:50;5.93;;;3.63;;
23543;SDS011;11950;51.230;4.012;2023-05-09T10:50:17;6.45;;;3.58;;
23543;SDS011;11950;51.230;4.012;2023-05-09T10:55:56;5.32;;;3.38;;
23543;SDS011;11950;51.230;4.012;2023-05-09T10:58:27;6.32;;;3.55;;
23543;SDS011;11950;51.230;4.012;2023-05-09T11:00:54;5.43;;;2.90;;
23543;SDS011;11950;51.230;4.012;2023-05-09T11:03:22;5.57;;;3.17;;
23543;SDS011;11950;51.230;4.012;2023-05-09T11:05:52;3.50;;;3.20;;
23543;SDS011;11950;51.230;4.012;2023-05-09T11:10:56;5.13;;;3.30;;
23543;SDS011;11950;51.230;4.012;2023-05-09T11:13:35;5.15;;;3.45;;
23543;SDS011;11950;51.230;4.012;2023-05-09T11:16:08;3.20;;;2.60;;
23543;SDS011;11950;51.230;4.012;2023-05-09T11:18:48;4.45;;;2.47;;
23543;SDS011;11950;51.230;4.012;2023-05-09T11:21:16;4.43;;;2.88;;
23543;SDS011;11950;51.230;4.012;2023-05-09T11:23:45;6.50;;;2.75;;
23543;SDS011;11950;51.230;4.012;2023-05-09T11:26:13;2.83;;;2.55;;
23543;SDS011;11950;51.230;4.012;2023-05-09T11:28:39;3.63;;;2.40;;
23543;SDS011;11950;51.230;4.012;2023-05-09T11:31:10;5.57;;;2.90;;
23543;SDS011;11950;51.230;4.012;2023-05-09T11:39:04;4.60;;;2.17;;
23543;SDS011;11950;51.230;4.012;2023-05-09T11:41:38;3.30;;;2.03;;
23543;SDS011;11950;51.230;4.012;2023-05-09T11:44:14;2.35;;;2.10;;
23543;SDS011;11950;51.230;4.012;2023-05-09T11:46:43;2.00;;;1.85;;
23543;SDS011;11950;51.230;4.012;2023-05-09T11:49:10;4.57;;;1.83;;
23543;SDS011;11950;51.230;4.012;2023-05-09T11:51:37;6.07;;;1.75;;
23543;SDS011;11950;51.230;4.012;2023-05-09T11:54:07;2.08;;;1.63;;
23543;SDS011;11950;51.230;4.012;2023-05-09T11:56:36;3.55;;;1.50;;
23543;SDS011;11950;51.230;4.012;2023-05-09T11:59:04;1.80;;;1.65;;
23543;SDS011;11950;51.230;4.012;2023-05-09T12:01:32;3.95;;;1.73;;
23543;SDS011;11950;51.230;4.012;2023-05-09T12:07:37;1.13;;;1.00;;
23543;SDS011;11950;51.230;4.012;2023-05-09T12:10:10;3.30;;;1.48;;
23543;SDS011;11950;51.230;4.012;2023-05-09T12:12:51;2.25;;;1.27;;
23543;SDS011;11950;51.230;4.012;2023-05-09T12:15:20;3.33;;;1.13;;
23543;SDS011;11950;51.230;4.012;2023-05-09T12:17:47;2.15;;;1.10;;
23543;SDS011;11950;51.230;4.012;2023-05-09T12:24:01;6.97;;;1.65;;
23543;SDS011;11950;51.230;4.012;2023-05-09T12:26:31;1.50;;;0.90;;
23543;SDS011;11950;51.230;4.012;2023-05-09T12:29:24;4.00;;;1.00;;
23543;SDS011;11950;51.230;4.012;2023-05-09T12:32:23;2.25;;;1.00;;
23543;SDS011;11950;51.230;4.012;2023-05-09T12:34:52;2.00;;;1.02;;
23543;SDS011;11950;51.230;4.012;2023-05-09T12:37:19;2.22;;;1.00;;
23543;SDS011;11950;51.230;4.012;2023-05-09T12:40:05;2.67;;;1.00;;
23543;SDS011;11950;51.230;4.012;2023-05-09T12:42:42;3.97;;;1.00;;
23543;SDS011;11950;51.230;4.012;2023-05-09T12:45:09;3.92;;;1.10;;
23543;SDS011;11950;51.230;4.012;2023-05-09T12:47:36;1.35;;;1.20;;
23543;SDS011;11950;51.230;4.012;2023-05-09T12:50:04;1.42;;;1.30;;
23543;SDS011;11950;51.230;4.012;2023-05-09T12:52:38;3.22;;;1.17;;
23543;SDS011;11950;51.230;4.012;2023-05-09T12:55:11;2.20;;;1.00;;
23543;SDS011;11950;51.230;4.012;2023-05-09T12:57:39;2.60;;;1.00;;
23543;SDS011;11950;51.230;4.012;2023-05-09T13:00:07;3.83;;;1.20;;
23543;SDS011;11950;51.230;4.012;2023-05-09T13:02:35;4.40;;;1.00;;
23543;SDS011;11950;51.230;4.012;2023-05-09T13:05:12;3.10;;;1.30;;
23543;SDS011;11950;51.230;4.012;2023-05-09T13:07:48;1.17;;;0.93;;
23543;SDS011;11950;51.230;4.012;2023-05-09T13:10:25;1.42;;;1.02;;
23543;SDS011;11950;51.230;4.012;2023-05-09T13:12:53;3.25;;;1.10;;
23543;SDS011;11950;51.230;4.012;2023-05-09T13:15:33;1.35;;;1.02;;
23543;SDS011;11950;51.230;4.012;2023-05-09T13:18:16;1.75;;;0.90;;
23543;SDS011;11950;51.230;4.012;2023-05-09T13:23:51;2.65;;;1.10;;
23543;SDS011;11950;51.230;4.012;2023-05-09T13:27:25;1.58;;;0.93;;
23543;SDS011;11950;51.230;4.012;2023-05-09T13:29:59;1.73;;;1.00;;
23543;SDS011;11950;51.230;4.012;2023-05-09T13:32:28;1.73;;;0.90;;
23543;SDS011;11950;51.230;4.012;2023-05-09T13:35:00;3.63;;;0.90;;
23543;SDS011;11950;51.230;4.012;2023-05-09T13:38:05;2.20;;;0.80;;
23543;SDS011;11950;51.230;4.012;2023-05-09T13:40:31;3.25;;;0.90;;
23543;SDS011;11950;51.230;4.012;2023-05-09T13:43:01;1.63;;;1.10;;
23543;SDS011;11950;51.230;4.012;2023-05-09T13:45:31;1.08;;;0.98;;
23543;SDS011;11950;51.230;4.012;2023-05-09T13:48:35;4.20;;;1.00;;
23543;SDS011;11950;51.230;4.012;2023-05-09T13:51:12;2.67;;;0.80;;
23543;SDS011;11950;51.230;4.012;2023-05-09T13:54:00;6.20;;;1.00;;
23543;SDS011;11950;51.230;4.012;2023-05-09T13:56:29;4.82;;;0.80;;
23543;SDS011;11950;51.230;4.012;2023-05-09T13:58:56;0.90;;;0.70;;
23543;SDS011;11950;51.230;4.012;2023-05-09T14:01:30;5.35;;;0.90;;
23543;SDS011;11950;51.230;4.012;2023-05-09T14:03:57;1.88;;;0.90;;
23543;SDS011;11950;51.230;4.012;2023-05-09T14:06:23;2.75;;;1.00;;
23543;SDS011;11950;51.230;4.012;2023-05-09T14:08:55;2.28;;;0.98;;
23543;SDS011;11950;51.230;4.012;2023-05-09T14:11:32;3.92;;;0.90;;
23543;SDS011;11950;51.230;4.012;2023-05-09T14:14:06;1.42;;;0.80;;
23543;SDS011;11950;51.230;4.012;2023-05-09T14:16:51;1.00;;;0.90;;
23543;SDS011;11950;51.230;4.012;2023-05-09T14:20:02;1.67;;;0.80;;
23543;SDS011;11950;51.230;4.012;2023-05-09T14:26:03;0.95;;;0.90;;
23543;SDS011;11950;51.230;4.012;2023-05-09T14:32:37;1.67;;;0.88;;
23543;SDS011;11950;51.230;4.012;2023-05-09T14:35:17;1.10;;;1.00;;
23543;SDS011;11950;51.230;4.012;2023-05-09T14:37:46;4.28;;;1.30;;
23543;SDS011;11950;51.230;4.012;2023-05-09T14:40:22;4.47;;;1.10;;
23543;SDS011;11950;51.230;4.012;2023-05-09T14:42:57;2.08;;;1.20;;
23543;SDS011;11950;51.230;4.012;2023-05-09T14:45:32;4.13;;;1.13;;
23543;SDS011;11950;51.230;4.012;2023-05-09T14:48:08;3.08;;;1.27;;
23543;SDS011;11950;51.230;4.012;2023-05-09T14:50:45;1.90;;;1.15;;
23543;SDS011;11950;51.230;4.012;2023-05-09T14:53:14;1.50;;;1.40;;
23543;SDS011;11950;51.230;4.012;2023-05-09T14:55:52;3.00;;;1.67;;
23543;SDS011;11950;51.230;4.012;2023-05-09T14:58:20;1.48;;;1.30;;
23543;SDS011;11950;51.230;4.012;2023-05-09T15:04:17;2.20;;;1.45;;
23543;SDS011;11950;51.230;4.012;2023-05-09T15:07:29;1.60;;;1.30;;
23543;SDS011;11950;51.230;4.012;2023-05-09T15:17:50;5.90;;;2.95;;
23543;SDS011;11950;51.230;4.012;2023-05-09T15:20:17;5.63;;;4.13;;
23543;SDS011;11950;51.230;4.012;2023-05-09T15:22:44;5.47;;;4.53;;
23543;SDS011;11950;51.230;4.012;2023-05-09T15:25:11;6.47;;;4.57;;
23543;SDS011;11950;51.230;4.012;2023-05-09T15:27:38;5.70;;;4.93;;
23543;SDS011;11950;51.230;4.012;2023-05-09T15:30:05;6.10;;;4.97;;
23543;SDS011;11950;51.230;4.012;2023-05-09T15:32:32;9.82;;;5.13;;
23543;SDS011;11950;51.230;4.012;2023-05-09T15:34:59;6.90;;;4.90;;
23543;SDS011;11950;51.230;4.012;2023-05-09T15:37:25;6.80;;;5.10;;
23543;SDS011;11950;51.230;4.012;2023-05-09T15:39:51;5.65;;;4.93;;
23543;SDS011;11950;51.230;4.012;2023-05-09T15:42:18;6.60;;;4.82;;
23543;SDS011;11950;51.230;4.012;2023-05-09T15:44:44;7.80;;;5.13;;
23543;SDS011;11950;51.230;4.012;2023-05-09T15:47:11;6.50;;;4.72;;
23543;SDS011;11950;51.230;4.012;2023-05-09T15:49:38;4.72;;;4.15;;